Flight Track Log - Related Links

Times and Time Zones

All times are in EDT time to prevent confusion due to time zone crossing. See the N55VF flight status page for this flight to view local times or setup timezone preferences in your user account.

Time Position Orientation Groundspeed Altitude Reporting Facility
EDT Latitude Longitude Course Direction KTS MPH feet Rate Location/Type
Thu 07:48:47 AM 41.1190 -81.3110 236° Southwest 130 150 5,000  Level FlightAware ADS-B
Thu 07:49:17 AM 41.1090 -81.3320 238° Southwest 148 170 5,300 655 Climbing FlightAware ADS-B
Thu 07:49:42 AM 41.0980 -81.3530 235° Southwest 153 176 5,600 545 Climbing FlightAware ADS-B
Thu 07:50:12 AM 41.0870 -81.3740 235° Southwest 163 188 5,800 218 Climbing FlightAware ADS-B
Thu 07:50:37 AM 41.0750 -81.3980 236° Southwest 173 199 5,800  Level FlightAware ADS-B
Thu 07:51:07 AM 41.0610 -81.4240 234° Southwest 176 203 5,800 100 Level FlightAware ADS-B
Thu 07:51:37 AM 41.0470 -81.4500 234° Southwest 168 193 5,900 327 Climbing FlightAware ADS-B
Thu 07:52:02 AM 41.0370 -81.4700 236° Southwest 158 182 6,100 600 Climbing FlightAware ADS-B
Thu 07:52:17 AM 41.0300 -81.4830 234° Southwest 153 176 6,300 750 Climbing FlightAware ADS-B
Thu 07:52:42 AM 41.0210 -81.5000 235° Southwest 148 170 6,600 667 Climbing FlightAware ADS-B
Thu 07:53:02 AM 41.0130 -81.5170 238° Southwest 148 170 6,800 400 Climbing FlightAware ADS-B
Thu 07:53:27 AM 41.0030 -81.5350 234° Southwest 151 174 6,900 327 Climbing FlightAware ADS-B
Thu 07:53:57 AM 40.9910 -81.5580 235° Southwest 153 176 7,100 327 Climbing FlightAware ADS-B
Thu 07:54:22 AM 40.9810 -81.5770 235° Southwest 153 176 7,200 327 Climbing FlightAware ADS-B
Thu 07:54:52 AM 40.9690 -81.6010 236° Southwest 153 176 7,400 327 Climbing FlightAware ADS-B
Thu 07:55:17 AM 40.9590 -81.6190 234° Southwest 153 176 7,500 300 Climbing FlightAware ADS-B
Thu 07:55:32 AM 40.9520 -81.6320 235° Southwest 152 175 7,600 400 Climbing FlightAware ADS-B
Thu 07:56:02 AM 40.9410 -81.6540 237° Southwest 153 176 7,800 200 Climbing FlightAware ADS-B
Thu 07:56:32 AM 40.9280 -81.6770 233° Southwest 161 185 7,800  Level FlightAware ADS-B
Thu 07:57:02 AM 40.9150 -81.7030 237° Southwest 163 188 7,800  Level FlightAware ADS-B
Thu 07:57:27 AM 40.9040 -81.7230 234° Southwest 165 190 7,800  Level FlightAware ADS-B
Thu 07:57:57 AM 40.8910 -81.7480 235° Southwest 165 190 7,800  Level FlightAware ADS-B
Thu 07:58:22 AM 40.8800 -81.7690 235° Southwest 165 190 7,800  Level FlightAware ADS-B
Thu 07:58:37 AM 40.8740 -81.7810 237° Southwest 163 188 7,800 -133 Level FlightAware ADS-B
Thu 07:59:07 AM 40.8610 -81.8060 235° Southwest 165 190 7,700  Descending FlightAware ADS-B
Thu 07:59:32 AM 40.8500 -81.8280 237° Southwest 165 190 7,800 109 Climbing FlightAware ADS-B
Thu 08:00:02 AM 40.8360 -81.8530 233° Southwest 166 191 7,800 -133 Level FlightAware ADS-B
Thu 08:00:17 AM 40.8300 -81.8640 234° Southwest 166 191 7,700 -150 Descending FlightAware ADS-B
Thu 08:00:42 AM 40.8190 -81.8860 237° Southwest 165 190 7,700  Level FlightAware ADS-B
Thu 08:01:12 AM 40.8060 -81.9100 234° Southwest 165 190 7,700 100 Level FlightAware ADS-B
Thu 08:01:42 AM 40.7940 -81.9330 235° Southwest 164 189 7,800  Climbing FlightAware ADS-B
Thu 08:02:07 AM 40.7820 -81.9550 234° Southwest 164 189 7,700  Descending FlightAware ADS-B
Thu 08:02:32 AM 40.7710 -81.9760 235° Southwest 165 190 7,800 133 Climbing FlightAware ADS-B
Thu 08:02:52 AM 40.7620 -81.9930 235° Southwest 165 190 7,800 -133 Level FlightAware ADS-B
Thu 08:03:17 AM 40.7520 -82.0130 237° Southwest 165 190 7,700 -109 Descending FlightAware ADS-B
Thu 08:03:47 AM 40.7380 -82.0380 234° Southwest 167 192 7,700 109 Level FlightAware ADS-B
Thu 08:04:12 AM 40.7270 -82.0600 237° Southwest 165 190 7,800  Climbing FlightAware ADS-B
Thu 08:04:42 AM 40.7140 -82.0830 233° Southwest 165 190 7,700  Descending FlightAware ADS-B
Thu 08:04:57 AM 40.7070 -82.0960 235° Southwest 165 190 7,800  Climbing FlightAware ADS-B
Thu 08:05:22 AM 40.6970 -82.1160 237° Southwest 166 191 7,700 -150 Descending FlightAware ADS-B
Thu 08:05:37 AM 40.6890 -82.1300 233° Southwest 167 192 7,700 150 Level FlightAware ADS-B
Thu 08:06:02 AM 40.6780 -82.1500 234° Southwest 165 190 7,800  Climbing FlightAware ADS-B
Thu 08:06:32 AM 40.6670 -82.1720 237° Southwest 167 192 7,700  Descending FlightAware ADS-B
Thu 08:07:02 AM 40.6520 -82.1990 234° Southwest 166 191 7,800  Climbing FlightAware ADS-B
Thu 08:07:42 AM 40.6350 -82.2310 235° Southwest 166 191 7,700 169 Descending FlightAware ADS-B
Thu 08:08:13 AM 40.6222 -82.2531 235° Southwest 166 191 8,000 194 Climbing Indianapolis Center
Thu 08:09:15 AM 40.5956 -82.3028 235° Southwest 165 190 8,000  Level Indianapolis Center
Thu 08:10:16 AM 40.5703 -82.3542 237° Southwest 166 191 8,000  Level Indianapolis Center
Thu 08:11:18 AM 40.5431 -82.4022 233° Southwest 163 188 8,000  Level Indianapolis Center
Thu 08:12:20 AM 40.5158 -82.4506 233° Southwest 162 186 8,000  Level Indianapolis Center
Thu 08:13:21 AM 40.4906 -82.5008 237° Southwest 163 188 8,000  Level Indianapolis Center
Thu 08:13:52 AM 40.4747 -82.5397 242° Southwest 247 284 8,000  Level Indianapolis Center
Thu 08:14:23 AM 40.4594 -82.5572 221° Southwest 163 188 8,000  Level Indianapolis Center
Thu 08:14:53 AM 40.4508 -82.5836 247° West 207 238 8,000  Level Indianapolis Center
Thu 08:15:24 AM 40.4331 -82.6058 224° Southwest 163 188 8,000  Level Indianapolis Center
Thu 08:15:53 AM 40.4208 -82.6297 236° Southwest 152 175 8,000  Level Indianapolis Center
Thu 08:16:26 AM 40.4069 -82.6547 234° Southwest 163 188 8,000  Level Indianapolis Center
Thu 08:17:00 AM 40.3947 -82.6761 233° Southwest 153 176 8,000  Level Indianapolis Center
Thu 08:17:28 AM 40.3814 -82.7031 237° Southwest 160 184 8,000  Level Indianapolis Center
Thu 08:18:13 AM 40.3636 -82.7356 234° Southwest 161 185 8,000  Level Indianapolis Center
Thu 08:18:29 AM 40.3547 -82.7519 235° Southwest 163 188 8,000  Level Indianapolis Center
Thu 08:18:56 AM 40.3419 -82.7767 236° Southwest 162 186 8,000  Level Indianapolis Center
Thu 08:19:31 AM 40.3289 -82.8000 234° Southwest 162 186 8,000  Level Indianapolis Center
Thu 08:20:08 AM 40.3114 -82.8308 233° Southwest 162 186 8,000  Level Indianapolis Center
Thu 08:20:33 AM 40.3033 -82.8467 236° Southwest 160 184 8,000  Level Indianapolis Center
Thu 08:21:10 AM 40.2850 -82.8797 234° Southwest 163 188 8,000  Level Indianapolis Center
Thu 08:21:34 AM 40.2767 -82.8958 236° Southwest 163 188 8,000  Level Indianapolis Center
Thu 08:21:52 AM 40.2661 -82.9103 226° Southwest 163 188 8,000  Level Indianapolis Center
Thu 08:22:36 AM 40.2450 -82.9503 235° Southwest 161 185 8,000  Level Indianapolis Center
Thu 08:22:53 AM 40.2400 -82.9592 234° Southwest 161 185 8,000 -581 Level Indianapolis Center
Thu 08:23:38 AM 40.2186 -83.0017 237° Southwest 169 194 7,400 -700 Descending Indianapolis Center
Thu 08:23:53 AM 40.2089 -83.0156 227° Southwest 170 196 7,300 -492 Descending Indianapolis Center
Thu 08:24:39 AM 40.1886 -83.0550 236° Southwest 177 204 6,900 -448 Descending Indianapolis Center
Thu 08:25:00 AM 40.1775 -83.0747 234° Southwest 182 209 6,800 -484 Descending Indianapolis Center
Thu 08:25:41 AM 40.1592 -83.1078 234° Southwest 177 204 6,400 -492 Descending Indianapolis Center
Thu 08:26:01 AM 40.1467 -83.1286 232° Southwest 177 204 6,300 -290 Descending Indianapolis Center
Thu 08:26:43 AM 40.1311 -83.1597 237° Southwest 173 199 6,100 -295 Descending Indianapolis Center
Thu 08:27:02 AM 40.1178 -83.1822 232° Southwest 174 200 6,000 -197 Descending Indianapolis Center
Thu 08:27:44 AM 40.1019 -83.2111 234° Southwest 175 201 5,900  Descending Indianapolis Center
Thu 08:28:03 AM 40.0914 -83.2311 235° Southwest 171 197 6,000  Climbing Indianapolis Center
Thu 08:28:46 AM 40.0753 -83.2606 234° Southwest 168 193 5,900  Descending Indianapolis Center
Thu 08:29:04 AM 40.0650 -83.2797 235° Southwest 166 191 6,000  Climbing Indianapolis Center
Thu 08:29:48 AM 40.0475 -83.3106 233° Southwest 168 193 5,900  Descending Indianapolis Center
Thu 08:30:04 AM 40.0364 -83.3281 230° Southwest 167 192 6,000  Climbing Indianapolis Center
Thu 08:30:49 AM 40.0203 -83.3597 236° Southwest 167 192 5,900 -49 Descending Indianapolis Center
Thu 08:36:12 AM 39.8700 -83.6300 236° Southwest 168 193 5,700 -34 Descending FlightAware ADS-B
Thu 08:36:37 AM 39.8590 -83.6500 234° Southwest 167 192 5,700  Level FlightAware ADS-B
Thu 08:37:07 AM 39.8450 -83.6740 233° Southwest 168 193 5,700  Level FlightAware ADS-B
Thu 08:37:32 AM 39.8340 -83.6930 233° Southwest 168 193 5,700 222 Level FlightAware ADS-B
Thu 08:38:01 AM 39.8250 -83.7108 233° Southwest 167 192 5,900  Climbing Indianapolis Center
Thu 08:39:03 AM 39.7925 -83.7686 234° Southwest 168 193 5,700 -435 Descending Indianapolis Center
Thu 08:40:05 AM 39.7625 -83.8217 234° Southwest 174 200 5,000 -537 Descending Indianapolis Center
Thu 08:41:06 AM 39.7328 -83.8742 234° Southwest 178 205 4,600 -537 Descending Indianapolis Center
Thu 08:42:08 AM 39.7033 -83.9278 234° Southwest 179 206 3,900 -339 Descending Indianapolis Center
Thu 08:43:10 AM 39.6742 -83.9786 233° Southwest 178 205 3,900  Level Indianapolis Center
Thu 08:44:11 AM 39.6472 -84.0258 233° Southwest 169 194 3,900 49 Level Indianapolis Center
Thu 08:45:13 AM 39.6206 -84.0731 234° Southwest 164 189 4,000  Climbing Indianapolis Center
Thu 08:46:15 AM 39.5931 -84.1211 233° Southwest 163 188 3,900  Descending Indianapolis Center
Thu 08:47:17 AM 39.5664 -84.1689 234° Southwest 163 188 4,000  Climbing Indianapolis Center
Thu 08:48:18 AM 39.5344 -84.2242 233° Southwest 163 188 3,900 -293 Descending Indianapolis Center
Thu 08:49:20 AM 39.5067 -84.2731 234° Southwest 164 189 3,400 -484 Descending Indianapolis Center
Thu 08:50:22 AM 39.4764 -84.3261 234° Southwest 174 200 2,900 -244 Descending Indianapolis Center
Thu 08:51:23 AM 39.4522 -84.3689 234° Southwest 159 183 2,900  Level Indianapolis Center
Thu 08:52:25 AM 39.4303 -84.4069 233° Southwest 139 160 2,900 48 Level Indianapolis Center
Thu 08:53:27 AM 39.4047 -84.4497 232° Southwest 137 158 3,000 97 Climbing Indianapolis Center

Login

Don't have an account? Register now (free) for customized features, flight alerts, and more!